createdAt,value
2022-08-02T00:00:58.920Z,18.76
2022-08-02T00:06:01.565Z,18.83
2022-08-02T00:11:04.296Z,18.96
2022-08-02T00:16:08.635Z,19.37
2022-08-02T00:21:11.666Z,19.05
2022-08-02T00:26:14.356Z,19.26
2022-08-02T00:31:18.280Z,18.60
2022-08-02T00:36:21.248Z,18.94
2022-08-02T00:41:24.031Z,19.11
2022-08-02T00:46:28.073Z,18.79
2022-08-02T00:51:30.711Z,19.22
2022-08-02T00:56:33.546Z,19.20
2022-08-02T01:01:56.675Z,18.93
2022-08-02T01:07:00.767Z,18.54
2022-08-02T01:12:03.338Z,18.95
2022-08-02T01:17:10.880Z,18.92
2022-08-02T01:22:34.659Z,19.12
2022-08-02T01:27:55.929Z,18.35
2022-08-02T01:33:02.688Z,18.87
2022-08-02T01:38:10.352Z,18.45
2022-08-02T01:43:14.108Z,18.12
2022-08-02T01:48:18.940Z,18.89
2022-08-02T01:53:25.217Z,18.12
2022-08-02T01:58:31.950Z,18.73
2022-08-02T02:03:41.584Z,18.65
2022-08-02T02:08:45.639Z,18.44
2022-08-02T02:13:50.119Z,18.65
2022-08-02T02:18:55.585Z,18.87
2022-08-02T02:23:59.401Z,18.77
2022-08-02T02:29:03.947Z,18.66
2022-08-02T02:34:12.115Z,18.75
2022-08-02T02:39:16.371Z,18.60
2022-08-02T02:44:21.499Z,18.15
2022-08-02T02:49:26.978Z,18.67
2022-08-02T02:54:34.068Z,18.72
2022-08-02T02:59:48.901Z,18.10
2022-08-02T03:04:58.076Z,17.73
2022-08-02T03:10:01.053Z,18.33
2022-08-02T03:15:08.127Z,18.07
2022-08-02T03:20:14.618Z,17.59
2022-08-02T03:25:18.662Z,18.03
2022-08-02T03:30:24.559Z,18.17
2022-08-02T03:35:28.807Z,18.22
2022-08-02T03:40:32.624Z,18.48
2022-08-02T03:45:35.505Z,18.43
2022-08-02T03:50:40.995Z,18.49
2022-08-02T03:55:43.822Z,18.47
2022-08-02T04:00:46.866Z,18.41
2022-08-02T04:06:04.037Z,18.37
2022-08-02T04:11:26.003Z,18.09
2022-08-02T04:16:35.325Z,18.15
2022-08-02T04:21:50.240Z,18.33
2022-08-02T04:26:57.984Z,18.34
2022-08-02T04:32:09.941Z,18.36
2022-08-02T04:37:14.818Z,18.20
2022-08-02T04:42:21.757Z,17.84
2022-08-02T04:48:01.903Z,17.71
2022-08-02T04:52:48.710Z,18.03
2022-08-02T04:57:58.027Z,18.17
2022-08-02T05:03:01.319Z,18.35
2022-08-02T05:08:05.758Z,18.29
2022-08-02T05:13:08.371Z,18.41
2022-08-02T05:18:12.269Z,18.40
2022-08-02T05:23:17.201Z,18.41
2022-08-02T05:28:20.114Z,18.55
2022-08-02T05:33:22.708Z,18.38
2022-08-02T05:38:28.502Z,18.58
2022-08-02T05:43:32.166Z,18.77
2022-08-02T05:48:35.910Z,18.91
2022-08-02T05:53:47.616Z,18.96
2022-08-02T05:58:54.059Z,18.98
2022-08-02T06:04:00.927Z,19.20
2022-08-02T06:09:09.977Z,19.22
2022-08-02T06:14:13.105Z,19.22
2022-08-02T06:19:18.217Z,19.41
2022-08-02T06:24:23.580Z,19.45
2022-08-02T06:29:27.187Z,19.66
2022-08-02T06:34:29.828Z,19.84
2022-08-02T06:39:40.602Z,20.00
2022-08-02T06:44:48.089Z,20.15
2022-08-02T06:49:54.598Z,20.26
2022-08-02T06:55:00.061Z,20.41
2022-08-02T07:00:07.103Z,20.58
2022-08-02T07:05:10.597Z,20.68
2022-08-02T07:10:15.564Z,20.75
2022-08-02T07:15:18.144Z,20.79
2022-08-02T07:20:20.712Z,20.92
2022-08-02T07:25:25.245Z,21.04
2022-08-02T07:30:47.880Z,21.24
2022-08-02T07:35:50.571Z,21.34
2022-08-02T07:40:55.314Z,21.46
2022-08-02T07:46:01.069Z,21.58
2022-08-02T07:51:03.878Z,21.71
2022-08-02T07:56:07.978Z,21.86
2022-08-02T08:01:10.690Z,21.96
2022-08-02T08:06:13.341Z,22.10
2022-08-02T08:11:17.297Z,22.21
2022-08-02T08:16:20.405Z,22.25
2022-08-02T08:21:23.233Z,22.41
2022-08-02T08:26:27.238Z,22.49
2022-08-02T08:31:29.836Z,22.58
2022-08-02T08:36:32.536Z,22.65
2022-08-02T08:41:38.572Z,22.79
2022-08-02T08:46:44.300Z,22.86
2022-08-02T08:51:47.079Z,22.80
2022-08-02T08:56:53.571Z,22.79
2022-08-02T09:01:57.026Z,22.96
2022-08-02T09:06:59.617Z,23.06
2022-08-02T09:12:15.764Z,23.22
2022-08-02T09:17:21.765Z,23.39
2022-08-02T09:22:24.673Z,23.51
2022-08-02T09:27:28.641Z,23.59
2022-08-02T09:32:44.811Z,23.66
2022-08-02T09:37:48.744Z,23.80
2022-08-02T09:43:00.459Z,23.69
2022-08-02T09:48:03.665Z,24.12
2022-08-02T09:53:07.199Z,24.12
2022-08-02T09:58:21.065Z,24.04
2022-08-02T10:03:26.750Z,24.12
2022-08-02T10:08:37.693Z,24.10
2022-08-02T10:13:41.634Z,24.35
2022-08-02T10:18:44.890Z,24.54
2022-08-02T10:23:50.395Z,24.48
2022-08-02T10:28:55.135Z,24.38
2022-08-02T10:34:00.986Z,24.33
2022-08-02T10:39:03.893Z,24.39
2022-08-02T10:44:07.846Z,24.43
2022-08-02T10:49:42.664Z,24.63
2022-08-02T10:54:50.799Z,24.80
2022-08-02T11:00:17.336Z,24.97
2022-08-02T11:05:42.987Z,25.15
2022-08-02T11:10:46.324Z,25.18
2022-08-02T11:16:01.156Z,25.26
2022-08-02T11:21:23.721Z,25.25
2022-08-02T11:26:46.302Z,25.32
2022-08-02T11:31:50.498Z,25.56
2022-08-02T11:36:54.337Z,25.76
2022-08-02T11:41:58.812Z,25.90
2022-08-02T11:47:04.411Z,25.85
2022-08-02T11:52:11.111Z,25.88
2022-08-02T11:57:20.299Z,25.77
2022-08-02T12:02:28.913Z,25.74
2022-08-02T12:07:35.007Z,25.79
2022-08-02T12:12:49.072Z,25.97
2022-08-02T12:18:10.906Z,26.04
2022-08-02T12:23:14.446Z,26.17
2022-08-02T12:28:20.330Z,26.33
2022-08-02T12:33:26.881Z,26.46
2022-08-02T12:38:29.713Z,26.47
2022-08-02T12:43:32.754Z,26.54
2022-08-02T12:48:40.449Z,26.61
2022-08-02T12:53:59.550Z,26.63
2022-08-02T12:59:02.981Z,26.61
2022-08-02T13:04:13.644Z,26.76
2022-08-02T13:09:17.861Z,26.84
2022-08-02T13:14:20.917Z,26.95
2022-08-02T13:19:24.852Z,27.11
2022-08-02T13:24:39.597Z,27.32
2022-08-02T13:29:50.870Z,27.26
2022-08-02T13:34:54.856Z,27.49
2022-08-02T13:40:19.154Z,27.64
2022-08-02T13:45:20.100Z,27.75
2022-08-02T13:50:24.970Z,27.88
2022-08-02T13:55:28.429Z,27.92
2022-08-02T14:00:34.214Z,28.18
2022-08-02T14:05:47.235Z,28.30
2022-08-02T14:10:52.482Z,28.58
2022-08-02T14:15:55.155Z,28.72
2022-08-02T14:20:59.206Z,28.99
2022-08-02T14:26:01.811Z,29.07
2022-08-02T14:31:04.665Z,29.15
2022-08-02T14:36:13.387Z,29.04
2022-08-02T14:41:20.554Z,28.91
2022-08-02T14:46:24.281Z,28.55
2022-08-02T14:51:28.450Z,28.49
2022-08-02T14:56:31.237Z,28.60
2022-08-02T15:01:34.060Z,28.38
2022-08-02T15:06:38.809Z,28.30
2022-08-02T15:11:47.020Z,28.17
2022-08-02T15:16:59.108Z,28.04
2022-08-02T15:22:03.342Z,27.89
2022-08-02T15:27:10.195Z,27.72
2022-08-02T15:32:13.575Z,27.61
2022-08-02T15:37:17.854Z,27.53
2022-08-02T15:42:20.876Z,27.53
2022-08-02T15:47:33.129Z,27.58
2022-08-02T15:52:37.523Z,27.57
2022-08-02T15:57:40.222Z,27.68
2022-08-02T16:02:42.984Z,27.63
2022-08-02T16:07:47.546Z,27.47
2022-08-02T16:12:50.245Z,27.44
2022-08-02T16:17:53.998Z,27.43
2022-08-02T16:22:59.076Z,27.42
2022-08-02T16:28:08.183Z,27.37
2022-08-02T16:33:11.318Z,27.44
2022-08-02T16:38:15.267Z,27.33
2022-08-02T16:43:19.934Z,27.48
2022-08-02T16:48:23.607Z,27.33
2022-08-02T16:53:36.603Z,27.16
2022-08-02T16:58:39.508Z,27.25
2022-08-02T17:03:56.550Z,27.20
2022-08-02T17:09:02.011Z,27.20
2022-08-02T17:14:04.613Z,27.21
2022-08-02T17:19:07.441Z,27.23
2022-08-02T17:24:11.406Z,27.14
2022-08-02T17:29:17.690Z,27.05
2022-08-02T17:34:26.984Z,27.17
2022-08-02T17:39:34.304Z,27.20
2022-08-02T17:44:45.993Z,27.13
2022-08-02T17:49:53.510Z,26.84
2022-08-02T17:54:57.561Z,27.03
2022-08-02T18:00:03.707Z,27.07
2022-08-02T18:05:11.882Z,26.99
2022-08-02T18:10:19.207Z,27.00
2022-08-02T18:15:22.847Z,27.02
2022-08-02T18:20:25.662Z,26.94
2022-08-02T18:25:36.822Z,26.86
2022-08-02T18:30:46.745Z,26.72
2022-08-02T18:35:51.085Z,26.63
2022-08-02T18:40:55.124Z,26.49
2022-08-02T18:46:05.287Z,26.32
2022-08-02T18:51:10.040Z,26.13
2022-08-02T18:56:20.339Z,26.03
2022-08-02T19:01:31.857Z,25.93
2022-08-02T19:06:36.121Z,25.81
2022-08-02T19:11:41.444Z,25.71
2022-08-02T19:16:50.812Z,25.60
2022-08-02T19:27:25.639Z,25.36
2022-08-02T19:32:41.531Z,25.42
2022-08-02T19:37:51.484Z,25.32
2022-08-02T19:44:20.896Z,25.14
2022-08-02T19:48:23.866Z,25.15
2022-08-02T19:53:28.556Z,25.06
2022-08-02T19:58:36.592Z,25.02
2022-08-02T20:03:51.325Z,24.97
2022-08-02T20:08:57.095Z,24.86
2022-08-02T20:14:03.710Z,24.76
2022-08-02T20:19:08.033Z,24.76
2022-08-02T20:24:10.705Z,24.68
2022-08-02T20:29:14.655Z,24.63
2022-08-02T20:34:17.298Z,24.45
2022-08-02T20:39:21.950Z,24.39
2022-08-02T20:50:03.047Z,24.20
2022-08-02T20:55:08.072Z,24.10
2022-08-02T21:00:23.377Z,23.97
2022-08-02T21:05:26.738Z,23.97
2022-08-02T21:10:51.942Z,24.10
2022-08-02T21:16:07.873Z,23.93
2022-08-02T21:21:11.672Z,23.88
2022-08-02T21:26:19.905Z,24.00
2022-08-02T21:31:32.002Z,24.00
2022-08-02T21:36:38.680Z,24.01
2022-08-02T21:47:11.122Z,23.91
2022-08-02T21:52:15.495Z,23.18
2022-08-02T21:57:19.697Z,23.49
2022-08-02T22:02:30.518Z,23.67
2022-08-02T22:07:38.313Z,23.72
2022-08-02T22:12:41.364Z,23.74
2022-08-02T22:17:53.011Z,23.69
2022-08-02T22:23:12.802Z,23.66
2022-08-02T22:28:38.825Z,23.53
2022-08-02T22:34:00.227Z,23.41
2022-08-02T22:39:05.879Z,23.05
2022-08-02T22:44:22.239Z,23.28
2022-08-02T22:49:38.226Z,23.30
2022-08-02T22:54:46.949Z,22.73
2022-08-02T22:58:59.153Z,25.56
2022-08-02T22:59:03.343Z,23.93
2022-08-02T22:59:08.077Z,23.80
2022-08-02T22:59:49.519Z,22.91
2022-08-02T23:04:53.632Z,22.73
2022-08-02T23:09:56.265Z,22.70
2022-08-02T23:14:59.070Z,22.78
2022-08-02T23:20:03.184Z,22.50
2022-08-02T23:25:08.414Z,22.60
2022-08-02T23:30:11.560Z,22.19
2022-08-02T23:35:17.277Z,21.73
2022-08-02T23:40:39.572Z,22.19
2022-08-02T23:45:44.420Z,22.32
2022-08-02T23:50:48.480Z,22.40
2022-08-02T23:55:51.205Z,22.16
